Time;durP1;ratioP1;P1;durP2;ratioP2;P2;SDS_P1;SDS_P2;PMS_P1;PMS_P2;Temp;Humidity;BMP_temperature;BMP_pressure;BME280_temperature;BME280_humidity;BME280_pressure;Samples;Min_cycle;Max_cycle;Signal;HPM_P1;HPM_P2
2023/07/17 00:00:25;;;;;;;7.20;4.13;;;;;;;-148.88;95.57;-17125.47;4994316;28;20022;-72
2023/07/17 00:02:50;;;;;;;6.40;3.67;;;;;;;-148.88;95.88;-17125.47;4994451;28;20088;-72
2023/07/17 00:05:16;;;;;;;7.05;3.85;;;;;;;-148.88;95.99;-17125.47;4993951;28;20156;-72
2023/07/17 00:07:42;;;;;;;7.43;4.28;;;;;;;-148.88;95.32;-17125.47;4992460;28;20393;-73
2023/07/17 00:10:10;;;;;;;5.95;3.50;;;;;;;-148.88;95.04;-17125.47;4993563;28;20041;-73
2023/07/17 00:12:37;;;;;;;9.52;4.60;;;;;;;-148.88;95.79;-17125.47;4993916;28;20014;-72
2023/07/17 00:15:05;;;;;;;7.90;3.90;;;;;;;-148.88;96.52;-17125.47;4993755;28;20473;-72
2023/07/17 00:17:33;;;;;;;7.85;3.95;;;;;;;-148.88;97.07;-17125.47;4993701;28;20097;-72
2023/07/17 00:19:59;;;;;;;6.95;3.70;;;;;;;-148.88;97.56;-17125.47;4993831;28;20026;-72
2023/07/17 00:22:25;;;;;;;7.95;4.35;;;;;;;-148.88;98.29;-17125.47;4992412;28;20026;-72
2023/07/17 00:24:51;;;;;;;8.05;4.30;;;;;;;-148.88;98.61;-17125.47;4993716;28;20077;-73
2023/07/17 00:27:17;;;;;;;8.57;4.13;;;;;;;-148.88;99.04;-17125.47;4993183;28;20033;-72
2023/07/17 00:29:44;;;;;;;9.02;4.32;;;;;;;-148.88;99.53;-17125.47;4992392;28;20023;-72
2023/07/17 00:32:11;;;;;;;7.50;4.07;;;;;;;-148.88;99.35;-17125.47;4993900;28;20026;-72
2023/07/17 00:34:37;;;;;;;7.15;4.30;;;;;;;-148.88;99.47;-17125.47;4993678;28;20027;-72
2023/07/17 00:37:03;;;;;;;7.88;4.20;;;;;;;-148.88;99.22;-17125.47;4993498;28;20086;-73
2023/07/17 00:39:28;;;;;;;8.30;4.40;;;;;;;-148.88;99.30;-17125.47;4993590;28;20026;-73
2023/07/17 00:41:53;;;;;;;8.23;4.32;;;;;;;-148.88;99.79;-17125.47;4993649;28;20033;-72
2023/07/17 00:44:19;;;;;;;7.47;4.25;;;;;;;-148.88;100.00;-17125.47;4993743;28;20117;-72
2023/07/17 00:46:46;;;;;;;6.95;4.20;;;;;;;-148.88;100.00;-17125.47;4993416;28;20026;-72
2023/07/17 00:49:12;;;;;;;7.55;4.22;;;;;;;-148.88;99.74;-17125.47;4992193;28;20030;-72
2023/07/17 00:51:39;;;;;;;7.47;4.07;;;;;;;-148.88;99.67;-17125.47;4993471;28;20030;-72
2023/07/17 00:54:06;;;;;;;7.20;4.60;;;;;;;-148.88;99.42;-17125.47;4993549;28;20018;-72
2023/07/17 00:56:33;;;;;;;8.82;4.60;;;;;;;-148.88;100.00;-17125.47;4993391;28;20034;-72
2023/07/17 00:58:58;;;;;;;7.93;4.38;;;;;;;-148.88;99.51;-17125.47;4992180;28;20035;-72
2023/07/17 01:01:26;;;;;;;7.45;4.00;;;;;;;-148.88;99.25;-17125.47;4993410;28;20034;-72
2023/07/17 01:03:55;;;;;;;7.30;3.97;;;;;;;-148.88;99.08;-17125.47;4993308;28;20030;-72
2023/07/17 01:06:22;;;;;;;8.95;4.53;;;;;;;-148.88;98.82;-17125.47;4993276;28;20101;-72
2023/07/17 01:08:48;;;;;;;9.15;4.13;;;;;;;-148.88;98.35;-17125.47;4991975;28;20034;-72
2023/07/17 01:11:14;;;;;;;8.55;4.38;;;;;;;-148.88;97.34;-17125.47;4993297;28;20453;-72
2023/07/17 01:13:46;;;;;;;10.85;4.55;;;;;;;-148.88;96.88;-17125.47;4993339;28;20022;-72
2023/07/17 01:16:13;;;;;;;10.52;4.00;;;;;;;-148.88;96.94;-17125.47;4993209;28;20030;-73
2023/07/17 01:18:38;;;;;;;8.05;4.53;;;;;;;-148.88;96.35;-17125.47;4993254;28;20142;-72
2023/07/17 01:21:07;;;;;;;7.97;3.88;;;;;;;-148.88;96.91;-17125.47;4993503;28;20070;-72
2023/07/17 01:23:33;;;;;;;8.68;4.28;;;;;;;-148.88;97.31;-17125.47;4993088;28;20453;-72
2023/07/17 01:25:59;;;;;;;11.13;4.60;;;;;;;-148.88;97.27;-17125.47;4993162;28;20503;-72
2023/07/17 01:28:24;;;;;;;9.68;4.55;;;;;;;-148.88;97.07;-17125.47;4993332;28;20045;-72
2023/07/17 01:30:49;;;;;;;6.18;3.90;;;;;;;-148.88;96.56;-17125.47;4991938;28;20125;-72
2023/07/17 01:33:15;;;;;;;7.38;4.00;;;;;;;-148.88;96.51;-17125.47;4993202;28;20129;-73
2023/07/17 01:35:40;;;;;;;9.30;4.25;;;;;;;-148.88;95.93;-17125.47;4993127;28;20054;-72
2023/07/17 01:38:07;;;;;;;6.72;4.22;;;;;;;-148.88;96.59;-17125.47;4993579;28;20106;-72
2023/07/17 01:40:33;;;;;;;8.93;4.25;;;;;;;-148.88;96.47;-17125.47;4996592;28;20026;-72
2023/07/17 01:42:58;;;;;;;6.57;3.88;;;;;;;-148.88;96.62;-17125.47;4996454;28;20030;-72
2023/07/17 01:45:23;;;;;;;8.98;3.85;;;;;;;-148.88;96.70;-17125.47;4996403;28;20033;-72
2023/07/17 01:47:49;;;;;;;6.63;3.90;;;;;;;-148.88;95.53;-17125.47;4996383;28;20370;-72
2023/07/17 01:50:15;;;;;;;7.32;4.40;;;;;;;-148.88;95.77;-17125.47;4996987;28;20117;-72
2023/07/17 01:52:40;;;;;;;10.15;4.75;;;;;;;-148.88;95.76;-17125.47;4996346;28;20067;-72
2023/07/17 01:55:06;;;;;;;10.00;4.70;;;;;;;-148.88;96.54;-17125.47;4996303;28;20389;-73
2023/07/17 01:57:31;;;;;;;7.80;4.30;;;;;;;-148.88;97.56;-17125.47;4996073;28;20156;-72
2023/07/17 01:59:56;;;;;;;8.18;4.43;;;;;;;-148.88;97.97;-17125.47;4996425;28;20029;-72
2023/07/17 02:02:22;;;;;;;9.35;4.82;;;;;;;-148.88;96.86;-17125.47;4996053;28;20026;-72
2023/07/17 02:04:47;;;;;;;9.40;4.63;;;;;;;-148.88;94.97;-17125.47;4996072;28;20037;-72
2023/07/17 02:07:12;;;;;;;7.85;3.85;;;;;;;-148.88;94.50;-17125.47;4994637;28;20031;-72
2023/07/17 02:09:38;;;;;;;7.50;4.00;;;;;;;-148.88;95.20;-17125.47;4996024;28;20049;-72
2023/07/17 02:12:07;;;;;;;11.38;4.53;;;;;;;-148.88;95.81;-17125.47;4994727;28;20022;-72
2023/07/17 02:14:32;;;;;;;8.13;4.60;;;;;;;-148.88;97.56;-17125.47;4994659;28;20034;-72
2023/07/17 02:16:58;;;;;;;9.57;4.13;;;;;;;-148.88;96.88;-17125.47;4995782;28;20061;-72
2023/07/17 02:19:23;;;;;;;6.32;3.95;;;;;;;-148.88;99.05;-17125.47;4995841;28;20023;-72
2023/07/17 02:21:48;;;;;;;5.88;3.70;;;;;;;-148.88;100.00;-17125.47;4995761;28;20062;-72
2023/07/17 02:24:14;;;;;;;7.45;4.15;;;;;;;-148.88;100.00;-17125.47;4995950;28;20117;-72
2023/07/17 02:26:39;;;;;;;7.75;4.28;;;;;;;-148.88;100.00;-17125.47;4995662;28;20034;-72
2023/07/17 02:29:04;;;;;;;7.95;4.65;;;;;;;-148.88;100.00;-17125.47;4994414;28;20092;-72
2023/07/17 02:31:30;;;;;;;8.27;4.82;;;;;;;-148.88;100.00;-17125.47;4994425;28;20120;-72
2023/07/17 02:33:55;;;;;;;9.90;4.68;;;;;;;-148.88;100.00;-17125.47;4995616;28;20161;-72
2023/07/17 02:36:21;;;;;;;9.73;4.72;;;;;;;-148.88;100.00;-17125.47;4994568;28;20027;-72
2023/07/17 02:38:46;;;;;;;8.55;4.68;;;;;;;-148.88;100.00;-17125.47;4995502;28;20473;-72
2023/07/17 02:41:13;;;;;;;10.23;4.75;;;;;;;-148.88;100.00;-17125.47;4994246;28;20018;-72
2023/07/17 02:43:38;;;;;;;8.95;4.43;;;;;;;-148.88;100.00;-17125.47;4995286;28;20509;-72
2023/07/17 02:46:03;;;;;;;8.52;4.43;;;;;;;-148.88;100.00;-17125.47;4995261;28;20076;-72
2023/07/17 02:48:29;;;;;;;10.93;4.75;;;;;;;-148.88;100.00;-17125.47;4995159;28;20054;-72
2023/07/17 02:50:54;;;;;;;7.68;4.82;;;;;;;-148.88;100.00;-17125.47;4994962;28;20062;-72
2023/07/17 02:53:19;;;;;;;14.05;5.32;;;;;;;-148.88;100.00;-17125.47;4995439;28;20489;-72
2023/07/17 02:55:45;;;;;;;8.55;4.93;;;;;;;-148.88;100.00;-17125.47;4995172;28;20030;-72
2023/07/17 02:58:10;;;;;;;11.13;4.72;;;;;;;-148.88;100.00;-17125.47;4995062;28;20105;-72
2023/07/17 03:00:35;;;;;;;8.52;4.90;;;;;;;-148.88;100.00;-17125.47;4995034;28;20026;-72
2023/07/17 03:03:06;;;;;;;8.93;4.70;;;;;;;-148.88;100.00;-17125.47;4994996;28;20023;-72
2023/07/17 03:05:34;;;;;;;8.82;5.22;;;;;;;-148.88;100.00;-17125.47;4995323;28;20019;-72
2023/07/17 03:08:00;;;;;;;9.30;4.53;;;;;;;-148.88;100.00;-17125.47;4993485;28;20604;-72
2023/07/17 03:10:25;;;;;;;8.15;4.82;;;;;;;-148.88;100.00;-17125.47;4994924;28;20113;-72
2023/07/17 03:12:50;;;;;;;12.93;5.50;;;;;;;-148.88;100.00;-17125.47;4994814;28;20026;-72
2023/07/17 03:15:16;;;;;;;8.15;4.90;;;;;;;-148.88;100.00;-17125.47;4994773;28;20022;-72
2023/07/17 03:17:42;;;;;;;9.50;5.43;;;;;;;-148.88;100.00;-17125.47;4994723;28;20046;-72
2023/07/17 03:20:10;;;;;;;7.72;4.55;;;;;;;-148.88;100.00;-17125.47;4994742;28;20481;-72
2023/07/17 03:22:37;;;;;;;7.60;4.50;;;;;;;-148.88;100.00;-17125.47;4993334;28;20033;-72
2023/07/17 03:25:06;;;;;;;9.73;4.55;;;;;;;-148.88;100.00;-17125.47;4994723;28;20030;-73
2023/07/17 03:27:32;;;;;;;8.88;5.30;;;;;;;-148.88;100.00;-17125.47;4994465;28;20022;-73
2023/07/17 03:29:57;;;;;;;9.02;5.18;;;;;;;-148.88;100.00;-17125.47;4994570;28;20044;-72
2023/07/17 03:32:23;;;;;;;8.70;4.82;;;;;;;-148.88;100.00;-17125.47;4994454;28;20496;-72
2023/07/17 03:34:48;;;;;;;8.40;4.55;;;;;;;-148.88;100.00;-17125.47;4994439;28;20112;-72
2023/07/17 03:37:13;;;;;;;7.70;4.15;;;;;;;-148.88;100.00;-17125.47;4993119;28;20018;-72
2023/07/17 03:39:39;;;;;;;11.65;4.68;;;;;;;-148.88;100.00;-17125.47;4994638;28;20382;-72
2023/07/17 03:42:10;;;;;;;7.22;4.80;;;;;;;-148.88;100.00;-17125.47;4994338;28;20022;-72
2023/07/17 03:44:36;;;;;;;7.90;4.40;;;;;;;-148.88;100.00;-17125.47;4994258;28;20022;-73
2023/07/17 03:47:01;;;;;;;9.27;4.50;;;;;;;-148.88;100.00;-17125.47;4994180;28;20500;-72
2023/07/17 03:49:27;;;;;;;7.57;4.07;;;;;;;-148.88;100.00;-17125.47;4994332;28;20058;-72
2023/07/17 03:51:52;;;;;;;7.95;4.15;;;;;;;-148.88;100.00;-17125.47;4994492;28;20397;-73
2023/07/17 03:54:17;;;;;;;8.45;4.05;;;;;;;-148.88;100.00;-17125.47;4994172;28;20044;-72
2023/07/17 03:56:43;;;;;;;7.18;4.03;;;;;;;-148.88;100.00;-17125.47;4994295;28;20045;-72
2023/07/17 03:59:08;;;;;;;8.63;4.28;;;;;;;-148.88;100.00;-17125.47;4994093;28;20022;-72
2023/07/17 04:01:33;;;;;;;7.85;4.18;;;;;;;-148.88;100.00;-17125.47;4993441;28;20049;-72
2023/07/17 04:03:59;;;;;;;8.18;4.13;;;;;;;-148.88;100.00;-17125.47;4992747;28;20024;-73
2023/07/17 04:06:24;;;;;;;8.82;4.47;;;;;;;-148.88;100.00;-17125.47;4993887;28;20026;-72
2023/07/17 04:08:49;;;;;;;8.52;4.43;;;;;;;-148.88;100.00;-17125.47;4993816;28;20068;-72
2023/07/17 04:11:15;;;;;;;9.02;3.80;;;;;;;-148.88;100.00;-17125.47;4993880;28;20389;-72
2023/07/17 04:13:41;;;;;;;7.57;4.13;;;;;;;-148.88;100.00;-17125.47;4993799;28;20064;-72
2023/07/17 04:16:07;;;;;;;7.40;4.35;;;;;;;-148.88;100.00;-17125.47;4994065;28;20045;-72
2023/07/17 04:18:33;;;;;;;7.82;4.20;;;;;;;-148.88;100.00;-17125.47;4992647;28;20469;-72
2023/07/17 04:20:58;;;;;;;7.07;3.88;;;;;;;-148.88;100.00;-17125.47;4993662;28;20094;-72
2023/07/17 04:23:23;;;;;;;8.25;4.15;;;;;;;-148.88;100.00;-17125.47;4993672;28;20018;-72
2023/07/17 04:25:50;;;;;;;6.93;3.90;;;;;;;-148.88;100.00;-17125.47;4992507;28;20373;-73
2023/07/17 04:28:15;;;;;;;10.93;4.25;;;;;;;-148.88;100.00;-17125.47;4993624;28;20045;-72
2023/07/17 04:30:40;;;;;;;8.23;3.88;;;;;;;-148.88;100.00;-17125.47;4992390;28;20485;-72
2023/07/17 04:33:06;;;;;;;9.75;4.40;;;;;;;-148.88;100.00;-17125.47;4993639;28;20045;-72
2023/07/17 04:35:38;;;;;;;8.80;4.75;;;;;;;-148.88;100.00;-17125.47;4992386;28;20105;-72
2023/07/17 04:38:04;;;;;;;10.20;4.50;;;;;;;-148.88;100.00;-17125.47;4993592;28;20022;-72
2023/07/17 04:40:30;;;;;;;6.72;3.92;;;;;;;-148.88;100.00;-17125.47;4993561;28;20105;-73
2023/07/17 04:42:59;;;;;;;10.15;4.22;;;;;;;-148.88;100.00;-17125.47;4992230;28;20117;-72
2023/07/17 04:45:24;;;;;;;7.03;3.78;;;;;;;-148.88;100.00;-17125.47;4993486;28;20097;-72
2023/07/17 04:47:49;;;;;;;11.07;3.90;;;;;;;-148.88;100.00;-17125.47;4993494;28;20054;-72
2023/07/17 04:50:15;;;;;;;7.45;4.13;;;;;;;-148.88;100.00;-17125.47;4992319;28;20030;-72
2023/07/17 04:52:41;;;;;;;6.80;3.80;;;;;;;-148.88;100.00;-17125.47;4993669;28;20026;-72
2023/07/17 04:55:06;;;;;;;8.98;4.03;;;;;;;-148.88;100.00;-17125.47;4992350;28;20370;-71
2023/07/17 04:57:32;;;;;;;10.02;3.85;;;;;;;-148.88;100.00;-17125.47;4993472;28;20046;-71
2023/07/17 04:59:57;;;;;;;9.10;3.97;;;;;;;-148.88;100.00;-17125.47;4992290;28;20030;-71
2023/07/17 05:02:22;;;;;;;8.52;4.68;;;;;;;-148.88;100.00;-17125.47;4993425;28;20449;-71
2023/07/17 05:04:48;;;;;;;12.48;4.25;;;;;;;-148.88;100.00;-17125.47;4993795;28;20568;-71
2023/07/17 05:07:16;;;;;;;7.55;4.03;;;;;;;-148.88;100.00;-17125.47;4992084;28;20026;-71
2023/07/17 05:09:41;;;;;;;7.93;3.80;;;;;;;-148.88;100.00;-17125.47;4993354;28;20492;-71
2023/07/17 05:12:07;;;;;;;7.85;4.50;;;;;;;-148.88;100.00;-17125.47;4993970;28;20026;-71
2023/07/17 05:14:32;;;;;;;7.10;4.18;;;;;;;-148.88;100.00;-17125.47;4997457;28;20417;-72
2023/07/17 05:16:58;;;;;;;8.57;4.25;;;;;;;-148.88;100.00;-17125.47;4997053;28;20477;-72
2023/07/17 05:19:23;;;;;;;8.50;4.30;;;;;;;-148.88;100.00;-17125.47;4997008;28;20030;-72
2023/07/17 05:21:48;;;;;;;8.43;4.22;;;;;;;-148.88;100.00;-17125.47;4997319;28;20076;-71
2023/07/17 05:24:14;;;;;;;8.82;4.13;;;;;;;-148.88;100.00;-17125.47;4997067;28;20584;-71
2023/07/17 05:26:41;;;;;;;10.20;4.25;;;;;;;-148.88;100.00;-17125.47;4997149;28;20488;-71
2023/07/17 05:29:07;;;;;;;9.73;4.20;;;;;;;-148.88;100.00;-17125.47;4996906;28;20027;-71
2023/07/17 05:31:32;;;;;;;6.43;3.75;;;;;;;-148.88;100.00;-17125.47;4996867;28;20045;-72
2023/07/17 05:33:57;;;;;;;8.70;4.18;;;;;;;-148.88;100.00;-17125.47;4997043;28;20019;-71
2023/07/17 05:36:23;;;;;;;8.05;4.40;;;;;;;-148.88;100.00;-17125.47;4995288;28;20026;-71
2023/07/17 05:38:48;;;;;;;9.27;3.75;;;;;;;-148.88;100.00;-17125.47;4996713;28;20029;-71
2023/07/17 05:41:13;;;;;;;8.02;4.18;;;;;;;-148.88;100.00;-17125.47;4996603;28;20414;-72
2023/07/17 05:43:39;;;;;;;8.07;4.10;;;;;;;-148.88;100.00;-17125.47;4996429;28;20030;-72
2023/07/17 05:46:04;;;;;;;9.57;4.63;;;;;;;-148.88;100.00;-17125.47;4995226;28;20161;-71
2023/07/17 05:48:29;;;;;;;6.25;4.03;;;;;;;-148.88;100.00;-17125.47;4996598;28;20022;-72
2023/07/17 05:50:55;;;;;;;9.93;4.30;;;;;;;-148.88;100.00;-17125.47;4996483;28;20043;-72
2023/07/17 05:53:20;;;;;;;8.55;4.10;;;;;;;-148.88;100.00;-17125.47;4996264;28;20019;-72
2023/07/17 05:55:46;;;;;;;10.18;4.47;;;;;;;-148.88;100.00;-17125.47;4996525;28;20019;-72
2023/07/17 05:58:12;;;;;;;8.68;4.38;;;;;;;-148.88;100.00;-17125.47;4994995;28;20032;-72
2023/07/17 06:00:38;;;;;;;7.57;4.03;;;;;;;-148.88;100.00;-17125.47;4996273;28;20030;-72
2023/07/17 06:03:03;;;;;;;9.00;4.47;;;;;;;-148.88;100.00;-17125.47;4996171;28;20551;-72
2023/07/17 06:05:29;;;;;;;8.13;4.70;;;;;;;-148.88;100.00;-17125.47;4996225;28;20041;-72
2023/07/17 06:07:54;;;;;;;8.18;4.38;;;;;;;-148.88;100.00;-17125.47;4995930;28;20027;-72
2023/07/17 06:10:20;;;;;;;7.82;4.32;;;;;;;-148.88;100.00;-17125.47;4996018;28;20026;-72
2023/07/17 06:12:45;;;;;;;9.55;4.50;;;;;;;-148.88;100.00;-17125.47;4995916;28;20052;-72
2023/07/17 06:15:13;;;;;;;9.65;4.68;;;;;;;-148.88;100.00;-17125.47;4995945;28;20109;-71
2023/07/17 06:17:38;;;;;;;8.20;4.45;;;;;;;-148.88;100.00;-17125.47;4995810;28;20026;-71
2023/07/17 06:20:06;;;;;;;11.65;4.53;;;;;;;-148.88;100.00;-17125.47;4995243;28;20033;-71
2023/07/17 06:22:31;;;;;;;9.25;4.75;;;;;;;-148.88;100.00;-17125.47;4995169;28;20053;-72
2023/07/17 06:24:57;;;;;;;10.80;4.47;;;;;;;-148.88;100.00;-17125.47;4994507;28;20116;-71
2023/07/17 06:27:22;;;;;;;7.50;4.25;;;;;;;-148.88;100.00;-17125.47;4995367;28;20057;-72
2023/07/17 06:29:47;;;;;;;8.57;4.30;;;;;;;-148.88;100.00;-17125.47;4993912;28;20030;-72
2023/07/17 06:32:13;;;;;;;9.55;4.25;;;;;;;-148.88;100.00;-17125.47;4995142;28;20504;-72
2023/07/17 06:34:41;;;;;;;6.82;4.07;;;;;;;-148.88;100.00;-17125.47;4993864;28;20026;-72
2023/07/17 06:37:07;;;;;;;8.63;4.05;;;;;;;-148.88;100.00;-17125.47;4993646;28;20028;-72
2023/07/17 06:39:33;;;;;;;9.93;4.85;;;;;;;-148.88;100.00;-17125.47;4995004;28;20487;-72
2023/07/17 06:41:59;;;;;;;8.18;3.97;;;;;;;-148.88;100.00;-17125.47;4995199;28;20060;-72
2023/07/17 06:44:24;;;;;;;9.70;4.65;;;;;;;-148.88;100.00;-17125.47;4995403;28;20023;-72
2023/07/17 06:46:50;;;;;;;7.05;4.50;;;;;;;-148.88;100.00;-17125.47;4994973;28;20579;-71
2023/07/17 06:49:15;;;;;;;8.90;4.55;;;;;;;-148.88;100.00;-17125.47;4995136;28;20028;-71
2023/07/17 06:51:41;;;;;;;11.52;5.10;;;;;;;-148.88;100.00;-17125.47;4995000;28;20061;-71
2023/07/17 06:54:06;;;;;;;8.75;5.28;;;;;;;-148.88;100.00;-17125.47;4994817;28;20027;-71
2023/07/17 06:56:31;;;;;;;11.55;5.55;;;;;;;-148.88;100.00;-17125.47;4994854;28;20038;-71
2023/07/17 06:58:57;;;;;;;8.90;6.00;;;;;;;-148.88;100.00;-17125.47;4994575;28;20031;-71
2023/07/17 07:01:22;;;;;;;9.80;5.75;;;;;;;-148.88;100.00;-17125.47;4994875;28;20439;-71
2023/07/17 07:03:48;;;;;;;8.18;5.45;;;;;;;-148.88;100.00;-17125.47;4994551;28;20085;-71
2023/07/17 07:06:13;;;;;;;10.15;5.68;;;;;;;-148.88;100.00;-17125.47;4994684;28;20049;-71
2023/07/17 07:08:40;;;;;;;9.48;5.07;;;;;;;-148.88;100.00;-17125.47;4994715;28;20429;-71
2023/07/17 07:11:05;;;;;;;7.47;4.90;;;;;;;-148.88;100.00;-17125.47;4994442;28;20101;-72
2023/07/17 07:13:31;;;;;;;8.55;5.45;;;;;;;-148.88;99.50;-17125.47;4994608;28;20071;-71
2023/07/17 07:15:56;;;;;;;6.97;4.95;;;;;;;-148.88;99.24;-17125.47;4994351;28;20033;-71
2023/07/17 07:18:21;;;;;;;7.53;4.90;;;;;;;-148.88;97.58;-17125.47;4994377;28;20053;-71
2023/07/17 07:20:51;;;;;;;7.18;4.47;;;;;;;-148.88;97.44;-17125.47;4994811;28;20089;-71
2023/07/17 07:23:16;;;;;;;8.80;4.55;;;;;;;-148.88;96.71;-17125.47;4994293;28;20397;-71
2023/07/17 07:25:42;;;;;;;10.65;4.45;;;;;;;-148.88;95.98;-17125.47;4992880;28;20027;-71
2023/07/17 07:28:07;;;;;;;7.93;3.92;;;;;;;-148.88;92.21;-17125.47;4994191;28;20113;-71
2023/07/17 07:30:33;;;;;;;8.77;3.92;;;;;;;-148.88;93.86;-17125.47;4994376;28;20101;-71
2023/07/17 07:32:58;;;;;;;8.05;3.90;;;;;;;-148.88;92.71;-17125.47;4993983;28;20022;-71
2023/07/17 07:35:24;;;;;;;10.60;4.45;;;;;;;-148.88;91.09;-17125.47;4994061;28;20077;-71
2023/07/17 07:37:49;;;;;;;7.85;3.50;;;;;;;-148.88;90.08;-17125.47;4992767;28;20480;-72
2023/07/17 07:40:15;;;;;;;7.70;4.18;;;;;;;-148.88;84.84;-17125.47;4994322;28;20511;-72
2023/07/17 07:42:41;;;;;;;8.93;4.10;;;;;;;-148.88;89.19;-17125.47;4993870;28;20033;-72
2023/07/17 07:45:06;;;;;;;8.35;3.60;;;;;;;-148.88;83.83;-17125.47;4994052;28;20034;-72
2023/07/17 07:47:32;;;;;;;8.57;3.97;;;;;;;-148.88;81.74;-17125.47;4994176;28;20026;-72
2023/07/17 07:49:59;;;;;;;5.40;3.65;;;;;;;-148.88;81.91;-17125.47;4994285;28;20023;-72
2023/07/17 07:52:25;;;;;;;6.78;3.58;;;;;;;-148.88;78.40;-17125.47;4994259;28;20114;-72
2023/07/17 07:54:50;;;;;;;4.93;3.40;;;;;;;-148.88;79.41;-17125.47;4993980;28;20116;-72
2023/07/17 07:57:15;;;;;;;7.18;3.55;;;;;;;-148.88;78.50;-17125.47;4994196;28;20018;-71
2023/07/17 07:59:41;;;;;;;6.95;3.83;;;;;;;-148.88;79.58;-17125.47;4993896;28;20022;-72
2023/07/17 08:02:07;;;;;;;7.05;3.40;;;;;;;-148.88;79.44;-17125.47;4993922;28;20034;-72
2023/07/17 08:04:32;;;;;;;7.30;3.97;;;;;;;-148.88;80.79;-17125.47;4993668;28;20026;-72
2023/07/17 08:07:11;;;;;;;6.55;3.55;;;;;;;-148.88;77.41;-17125.47;5070177;28;20734;-72
2023/07/17 08:09:37;;;;;;;7.32;3.83;;;;;;;-148.88;79.29;-17125.47;5068665;28;20032;-72
2023/07/17 08:12:06;;;;;;;8.48;3.72;;;;;;;-148.88;78.49;-17125.47;5068877;28;20040;-72
2023/07/17 08:14:33;;;;;;;9.75;4.13;;;;;;;-148.88;78.72;-17125.47;5070131;28;20020;-72
2023/07/17 08:16:58;;;;;;;7.47;3.65;;;;;;;-148.88;75.40;-17125.47;5069871;28;20063;-72
2023/07/17 08:19:24;;;;;;;8.25;3.85;;;;;;;-148.88;73.29;-17125.47;5070216;28;20491;-73
2023/07/17 08:21:49;;;;;;;7.32;3.80;;;;;;;-148.88;73.20;-17125.47;5069832;28;20024;-73
2023/07/17 08:24:14;;;;;;;7.20;3.80;;;;;;;-148.88;69.90;-17125.47;5069787;28;20044;-72
2023/07/17 08:26:40;;;;;;;7.72;4.18;;;;;;;-148.88;71.78;-17125.47;5069923;28;20031;-73
2023/07/17 08:29:08;;;;;;;6.75;3.60;;;;;;;-148.88;71.40;-17125.47;5069673;28;20024;-72
2023/07/17 08:31:34;;;;;;;9.02;4.05;;;;;;;-148.88;69.67;-17125.47;5069689;28;20025;-72
2023/07/17 08:34:05;;;;;;;7.22;4.00;;;;;;;-148.88;68.41;-17125.47;5069926;28;20036;-72
2023/07/17 08:36:31;;;;;;;8.60;4.05;;;;;;;-148.88;66.36;-17125.47;5069981;28;20031;-72
2023/07/17 08:38:57;;;;;;;8.98;3.90;;;;;;;-148.88;68.79;-17125.47;5068301;28;20074;-72
2023/07/17 08:41:23;;;;;;;6.57;3.47;;;;;;;-148.88;69.56;-17125.47;5069320;28;20021;-72
2023/07/17 08:43:49;;;;;;;6.47;3.70;;;;;;;-148.88;66.94;-17125.47;5069444;28;20021;-72
2023/07/17 08:46:15;;;;;;;6.13;3.63;;;;;;;-148.88;65.12;-17125.47;5069011;28;20088;-73
2023/07/17 08:48:41;;;;;;;8.05;3.85;;;;;;;-148.88;65.45;-17125.47;5069117;28;20029;-73
2023/07/17 08:51:08;;;;;;;7.35;3.67;;;;;;;-148.88;66.42;-17125.47;5069042;28;20027;-72
2023/07/17 08:53:36;;;;;;;5.38;3.63;;;;;;;-148.88;67.65;-17125.47;5069344;28;20147;-73
2023/07/17 08:56:02;;;;;;;9.95;3.92;;;;;;;-148.88;64.29;-17125.47;5069014;28;20113;-72
2023/07/17 08:58:28;;;;;;;7.78;3.80;;;;;;;-148.88;66.38;-17125.47;5067860;28;20112;-73
2023/07/17 09:00:55;;;;;;;7.70;4.18;;;;;;;-148.88;65.29;-17125.47;5068948;28;20035;-72
2023/07/17 09:03:20;;;;;;;6.47;4.03;;;;;;;-148.88;64.93;-17125.47;5068870;28;20020;-72
2023/07/17 09:05:46;;;;;;;6.50;3.42;;;;;;;-148.88;61.97;-17125.47;5068805;28;20143;-73
2023/07/17 09:08:12;;;;;;;8.80;4.65;;;;;;;-148.88;60.35;-17125.47;5067362;28;20029;-73
2023/07/17 09:10:39;;;;;;;7.32;4.07;;;;;;;-148.88;61.14;-17125.47;5068735;28;20031;-74
2023/07/17 09:13:04;;;;;;;8.18;4.30;;;;;;;-148.88;61.19;-17125.47;5068779;28;20056;-73
2023/07/17 09:15:32;;;;;;;6.95;4.28;;;;;;;-148.88;58.27;-17125.47;5068823;28;20074;-72
2023/07/17 09:17:57;;;;;;;7.38;4.07;;;;;;;-148.88;58.58;-17125.47;5058758;28;20025;-73
2023/07/17 09:20:23;;;;;;;5.68;3.72;;;;;;;-148.88;58.67;-17125.47;5055354;28;20017;-73
2023/07/17 09:22:49;;;;;;;8.40;4.57;;;;;;;-148.88;55.08;-17125.47;5055303;28;20021;-73
2023/07/17 09:25:16;;;;;;;8.43;4.13;;;;;;;-148.88;56.38;-17125.47;5055368;28;20395;-72
2023/07/17 09:27:45;;;;;;;7.53;4.25;;;;;;;-148.88;56.07;-17125.47;5055294;28;20028;-72
2023/07/17 09:30:12;;;;;;;8.55;4.47;;;;;;;-148.88;55.93;-17125.47;5055264;28;20029;-73
2023/07/17 09:32:38;;;;;;;10.05;5.10;;;;;;;-148.88;54.12;-17125.47;5055448;28;20487;-73
2023/07/17 09:35:08;;;;;;;7.80;4.68;;;;;;;-148.88;54.27;-17125.47;5055299;28;20094;-73
2023/07/17 09:37:35;;;;;;;6.10;4.05;;;;;;;-148.88;52.90;-17125.47;5055406;28;20020;-72
2023/07/17 09:40:09;;;;;;;7.30;4.20;;;;;;;-148.88;53.23;-17125.47;5055192;28;20029;-72
2023/07/17 09:42:35;;;;;;;8.45;4.45;;;;;;;-148.88;52.22;-17125.47;5055271;28;20025;-72
2023/07/17 09:45:02;;;;;;;7.43;4.65;;;;;;;-148.88;52.56;-17125.47;5053574;28;20124;-73
2023/07/17 09:47:29;;;;;;;8.93;4.78;;;;;;;-148.88;51.35;-17125.47;5053426;28;20517;-73
2023/07/17 09:49:54;;;;;;;9.75;4.20;;;;;;;-148.88;50.20;-17125.47;5053931;28;20071;-72
2023/07/17 09:52:20;;;;;;;6.75;4.43;;;;;;;-148.88;51.86;-17125.47;5055412;28;20059;-72
2023/07/17 09:54:49;;;;;;;7.90;4.78;;;;;;;-148.88;51.41;-17125.47;5055238;28;20090;-71
2023/07/17 09:57:26;;;;;;;6.95;4.70;;;;;;;-148.88;49.41;-17125.47;5055249;28;20418;-71
2023/07/17 09:59:53;;;;;;;7.65;4.53;;;;;;;-148.88;49.51;-17125.47;5055573;28;20025;-71
2023/07/17 10:02:21;;;;;;;7.68;4.38;;;;;;;-148.88;51.15;-17125.47;5053591;28;20032;-71
2023/07/17 10:04:52;;;;;;;9.88;4.82;;;;;;;-148.88;51.67;-17125.47;5055145;28;20036;-72
2023/07/17 10:07:19;;;;;;;8.68;4.93;;;;;;;-148.88;51.01;-17125.47;5054599;28;20151;-71
2023/07/17 10:09:48;;;;;;;9.05;4.45;;;;;;;-148.88;50.54;-17125.47;5054809;28;20131;-72
2023/07/17 10:12:14;;;;;;;8.07;4.57;;;;;;;-148.88;49.90;-17125.47;5054610;28;20016;-71
2023/07/17 10:14:41;;;;;;;9.75;4.22;;;;;;;-148.88;49.88;-17125.47;5054652;28;20016;-71
2023/07/17 10:17:33;;;;;;;7.03;4.28;;;;;;;-148.88;50.55;-17125.47;5054460;28;20032;-71
2023/07/17 10:20:10;;;;;;;7.05;3.92;;;;;;;-148.88;48.32;-17125.47;5054771;28;20025;-71
2023/07/17 10:22:44;;;;;;;5.72;3.58;;;;;;;-148.88;49.49;-17125.47;5053742;28;20017;-72
2023/07/17 10:25:18;;;;;;;5.57;3.35;;;;;;;-148.88;50.18;-17125.47;5055238;28;20047;-72
2023/07/17 10:28:01;;;;;;;5.15;3.65;;;;;;;-148.88;49.67;-17125.47;5054966;28;20029;-71
2023/07/17 10:30:33;;;;;;;6.63;3.45;;;;;;;-148.88;50.15;-17125.47;5054526;28;20028;-71
2023/07/17 10:33:15;;;;;;;6.60;3.40;;;;;;;-148.88;49.52;-17125.47;5054934;28;20044;-73
2023/07/17 10:35:46;;;;;;;7.45;3.47;;;;;;;-148.88;49.26;-17125.47;5055590;28;20017;-73
2023/07/17 10:38:13;;;;;;;6.47;2.90;;;;;;;-148.88;48.53;-17125.47;5055212;28;20029;-74
2023/07/17 10:40:39;;;;;;;4.93;2.63;;;;;;;-148.88;47.72;-17125.47;5055539;28;20433;-73
2023/07/17 10:43:18;;;;;;;7.20;2.97;;;;;;;-148.88;47.55;-17125.47;5055089;28;20552;-74
2023/07/17 10:45:45;;;;;;;8.90;3.00;;;;;;;-148.88;48.94;-17125.47;5054893;28;20020;-73
2023/07/17 10:48:12;;;;;;;5.13;2.60;;;;;;;-148.88;47.68;-17125.47;5054346;28;20094;-74
2023/07/17 10:50:39;;;;;;;5.63;3.10;;;;;;;-148.88;48.14;-17125.47;5054917;28;20032;-75
2023/07/17 10:53:05;;;;;;;6.07;2.97;;;;;;;-148.88;47.20;-17125.47;5053176;28;20123;-74
2023/07/17 10:55:32;;;;;;;5.63;2.80;;;;;;;-148.88;47.35;-17125.47;5053568;28;20475;-73
2023/07/17 10:58:00;;;;;;;5.30;2.53;;;;;;;-148.88;48.89;-17125.47;5055215;28;20602;-73
2023/07/17 11:00:26;;;;;;;5.20;2.30;;;;;;;-148.88;48.42;-17125.47;5055966;28;20033;-73